Список аэропортов
Фактическая погода:

19 августа, 04:00
Температура: +19°C (+19.0*)
Ветер: западный 1 м/с
Давление: *760 мм
разорв. обл.
690 м
Время (МСК)Темп. СВетерВлажностьДавлениеОблачностьОсадки
03:00+21ЮЗ, 2 м/с88%1013 гПаоблачно
04:00+20ЮЗ, 2 м/с90%1013 гПас прояснениями
05:00+20ЮЗ, 2 м/с91%1014 гПаоблачно
06:00+20ЮЗ, 1 м/с90%1014 гПаоблачно
07:00+21ЮЗ, 2 м/с89%1014 гПаоблачно
08:00+21ЮЗ, 1 м/с88%1014 гПаоблачно
09:00+22З, 1 м/с85%1015 гПаоблачно
10:00+23ЮЗ, 1 м/с79%1015 гПаоблачно
11:00+24З, 1 м/с70%1015 гПас прояснениями
12:00+27З, 2 м/с57%1014 гПамалооблачно
13:00+28СЗ, 2 м/с52%1014 гПаясно
14:00+30С, 2 м/с50%1014 гПаясно
15:00+30С, 3 м/с48%1014 гПас прояснениями
16:00+30С, 3 м/с48%1014 гПаоблачно
17:00+31С, 3 м/с47%1014 гПаоблачно
18:00+30С, 3 м/с48%1014 гПаоблачно
19:00+30С, 2 м/с49%1014 гПаоблачно
20:00+30СЗ, 3 м/с50%1014 гПаоблачно
21:00+29СЗ, 3 м/с52%1014 гПас прояснениями
22:00+28СЗ, 3 м/с53%1014 гПамалооблачно
23:00+27СЗ, 3 м/с55%1014 гПаясно
20 августа
00:00+26СЗ, 3 м/с59%1014 гПаясно
01:00+26СЗ, 3 м/с64%1014 гПаясно
02:00+25СЗ, 2 м/с68%1014 гПаясно
03:00+24СЗ, 2 м/с73%1014 гПаясно
04:00+23СЗ, 2 м/с76%1014 гПаясно
05:00+23СЗ, 3 м/с79%1014 гПаясно
06:00+23С, 2 м/с82%1015 гПаясно
07:00+23СВ, 2 м/с78%1015 гПаясно
08:00+25СВ, 2 м/с67%1015 гПаясно
09:00+27СВ, 2 м/с57%1015 гПаясно
10:00+29С, 2 м/с50%1015 гПаясно
11:00+32С, 3 м/с42%1015 гПаясно
12:00+34СВ, 4 м/с35%1014 гПаясно
13:00+36С, 5 м/с30%1014 гПаясно
14:00+36СВ, 6 м/с27%1013 гПамалооблачносл. дождь
15:00+36С, 5 м/с28%1013 гПаоблачносл. дождь
16:00+36СВ, 6 м/с28%1012 гПаясно
17:00+36СВ, 6 м/с30%1013 гПаясно
18:00+35СВ, 7 м/с28%1013 гПаясно
19:00+34СВ, 5 м/с24%1013 гПаясно
20:00+32СВ, 5 м/с26%1013 гПаясно
21:00+32С, 5 м/с28%1013 гПамалооблачно
22:00+31С, 5 м/с29%1013 гПамалооблачно
23:00+30С, 5 м/с31%1013 гПамалооблачно
21 августа
00:00+30С, 5 м/с31%1013 гПас прояснениями
01:00+29С, 6 м/с31%1013 гПаоблачно
02:00+28СВ, 4 м/с34%1013 гПамалооблачносл. дождь
03:00+26С, 4 м/с42%1013 гПаоблачно